sensor_id;sensor_type;location;lat;lon;timestamp;P1;durP1;ratioP1;P2;durP2;ratioP2
37891;SDS011;45797;47.466;9.486;2023-07-08T00:02:24;6.50;;;2.35;;
37891;SDS011;45797;47.466;9.486;2023-07-08T00:07:24;9.25;;;2.35;;
37891;SDS011;45797;47.466;9.486;2023-07-08T00:12:24;5.95;;;2.05;;
37891;SDS011;45797;47.466;9.486;2023-07-08T00:17:25;6.43;;;2.13;;
37891;SDS011;45797;47.466;9.486;2023-07-08T00:22:25;4.93;;;2.08;;
37891;SDS011;45797;47.466;9.486;2023-07-08T00:27:27;4.28;;;1.95;;
37891;SDS011;45797;47.466;9.486;2023-07-08T00:32:28;7.32;;;2.15;;
37891;SDS011;45797;47.466;9.486;2023-07-08T00:37:34;6.70;;;2.20;;
37891;SDS011;45797;47.466;9.486;2023-07-08T00:47:49;6.05;;;2.20;;
37891;SDS011;45797;47.466;9.486;2023-07-08T00:53:15;7.03;;;2.30;;
37891;SDS011;45797;47.466;9.486;2023-07-08T01:03:58;5.22;;;2.10;;
37891;SDS011;45797;47.466;9.486;2023-07-08T01:09:11;6.28;;;2.00;;
37891;SDS011;45797;47.466;9.486;2023-07-08T01:14:16;7.30;;;2.03;;
37891;SDS011;45797;47.466;9.486;2023-07-08T01:19:19;7.85;;;2.70;;
37891;SDS011;45797;47.466;9.486;2023-07-08T01:24:37;5.47;;;2.20;;
37891;SDS011;45797;47.466;9.486;2023-07-08T01:35:32;5.97;;;2.25;;
37891;SDS011;45797;47.466;9.486;2023-07-08T01:40:36;9.52;;;2.05;;
37891;SDS011;45797;47.466;9.486;2023-07-08T01:45:38;6.45;;;2.35;;
37891;SDS011;45797;47.466;9.486;2023-07-08T01:50:45;8.75;;;2.30;;
37891;SDS011;45797;47.466;9.486;2023-07-08T01:55:51;5.28;;;2.40;;
37891;SDS011;45797;47.466;9.486;2023-07-08T02:01:07;8.32;;;2.00;;
37891;SDS011;45797;47.466;9.486;2023-07-08T02:06:09;5.97;;;2.50;;
37891;SDS011;45797;47.466;9.486;2023-07-08T02:11:09;5.55;;;2.20;;
37891;SDS011;45797;47.466;9.486;2023-07-08T02:16:10;4.38;;;2.15;;
37891;SDS011;45797;47.466;9.486;2023-07-08T02:21:11;8.23;;;2.33;;
37891;SDS011;45797;47.466;9.486;2023-07-08T02:31:17;5.63;;;2.03;;
37891;SDS011;45797;47.466;9.486;2023-07-08T02:36:18;5.80;;;2.42;;
37891;SDS011;45797;47.466;9.486;2023-07-08T02:41:19;6.85;;;2.50;;
37891;SDS011;45797;47.466;9.486;2023-07-08T02:46:20;5.43;;;2.05;;
37891;SDS011;45797;47.466;9.486;2023-07-08T02:51:21;4.88;;;1.88;;
37891;SDS011;45797;47.466;9.486;2023-07-08T02:56:22;6.07;;;1.80;;
37891;SDS011;45797;47.466;9.486;2023-07-08T03:01:24;5.28;;;2.03;;
37891;SDS011;45797;47.466;9.486;2023-07-08T03:11:31;6.90;;;2.30;;
37891;SDS011;45797;47.466;9.486;2023-07-08T03:16:32;5.88;;;2.03;;
37891;SDS011;45797;47.466;9.486;2023-07-08T03:21:33;7.03;;;1.88;;
37891;SDS011;45797;47.466;9.486;2023-07-08T03:31:56;5.75;;;2.03;;
37891;SDS011;45797;47.466;9.486;2023-07-08T03:36:57;5.28;;;1.77;;
37891;SDS011;45797;47.466;9.486;2023-07-08T03:41:58;5.30;;;1.83;;
37891;SDS011;45797;47.466;9.486;2023-07-08T03:47:00;4.72;;;1.60;;
37891;SDS011;45797;47.466;9.486;2023-07-08T03:52:02;6.35;;;1.65;;
37891;SDS011;45797;47.466;9.486;2023-07-08T03:57:12;3.97;;;1.77;;
37891;SDS011;45797;47.466;9.486;2023-07-08T04:02:13;5.25;;;2.03;;
37891;SDS011;45797;47.466;9.486;2023-07-08T04:07:15;5.18;;;1.60;;
37891;SDS011;45797;47.466;9.486;2023-07-08T04:12:23;9.13;;;1.73;;
37891;SDS011;45797;47.466;9.486;2023-07-08T04:17:24;3.42;;;1.48;;
37891;SDS011;45797;47.466;9.486;2023-07-08T04:22:30;3.75;;;1.30;;
37891;SDS011;45797;47.466;9.486;2023-07-08T04:27:31;3.40;;;1.10;;
37891;SDS011;45797;47.466;9.486;2023-07-08T04:32:34;3.15;;;1.20;;
37891;SDS011;45797;47.466;9.486;2023-07-08T04:37:44;5.20;;;1.50;;
37891;SDS011;45797;47.466;9.486;2023-07-08T04:42:48;4.00;;;1.67;;
37891;SDS011;45797;47.466;9.486;2023-07-08T04:52:53;5.97;;;2.00;;
37891;SDS011;45797;47.466;9.486;2023-07-08T04:57:54;6.07;;;1.70;;
37891;SDS011;45797;47.466;9.486;2023-07-08T05:07:58;5.28;;;1.88;;
37891;SDS011;45797;47.466;9.486;2023-07-08T05:13:01;6.13;;;2.00;;
37891;SDS011;45797;47.466;9.486;2023-07-08T05:18:01;3.72;;;1.52;;
37891;SDS011;45797;47.466;9.486;2023-07-08T05:23:02;5.35;;;1.70;;
37891;SDS011;45797;47.466;9.486;2023-07-08T05:28:04;3.80;;;1.60;;
37891;SDS011;45797;47.466;9.486;2023-07-08T05:33:11;3.38;;;1.40;;
37891;SDS011;45797;47.466;9.486;2023-07-08T05:38:25;3.88;;;1.25;;
37891;SDS011;45797;47.466;9.486;2023-07-08T05:43:26;5.80;;;1.20;;
37891;SDS011;45797;47.466;9.486;2023-07-08T05:48:27;4.00;;;1.42;;
37891;SDS011;45797;47.466;9.486;2023-07-08T05:58:32;2.88;;;1.30;;
37891;SDS011;45797;47.466;9.486;2023-07-08T06:03:33;4.30;;;1.33;;
37891;SDS011;45797;47.466;9.486;2023-07-08T06:08:42;4.80;;;1.30;;
37891;SDS011;45797;47.466;9.486;2023-07-08T06:13:44;4.00;;;1.25;;
37891;SDS011;45797;47.466;9.486;2023-07-08T06:18:46;2.33;;;1.10;;
37891;SDS011;45797;47.466;9.486;2023-07-08T06:23:49;2.70;;;1.00;;
37891;SDS011;45797;47.466;9.486;2023-07-08T06:28:49;2.83;;;0.98;;
37891;SDS011;45797;47.466;9.486;2023-07-08T06:33:51;2.25;;;1.13;;
37891;SDS011;45797;47.466;9.486;2023-07-08T06:38:53;4.53;;;1.00;;
37891;SDS011;45797;47.466;9.486;2023-07-08T06:44:09;2.67;;;0.98;;
37891;SDS011;45797;47.466;9.486;2023-07-08T06:59:30;2.15;;;0.90;;
37891;SDS011;45797;47.466;9.486;2023-07-08T07:04:33;2.92;;;0.90;;
37891;SDS011;45797;47.466;9.486;2023-07-08T07:09:33;1.92;;;0.77;;
37891;SDS011;45797;47.466;9.486;2023-07-08T07:14:33;2.20;;;1.00;;
37891;SDS011;45797;47.466;9.486;2023-07-08T07:19:42;3.25;;;0.80;;
37891;SDS011;45797;47.466;9.486;2023-07-08T07:24:42;2.08;;;0.90;;
37891;SDS011;45797;47.466;9.486;2023-07-08T07:29:50;2.13;;;0.80;;
37891;SDS011;45797;47.466;9.486;2023-07-08T07:34:52;1.65;;;0.70;;
37891;SDS011;45797;47.466;9.486;2023-07-08T07:40:09;2.55;;;0.93;;
37891;SDS011;45797;47.466;9.486;2023-07-08T07:45:12;1.85;;;0.82;;
37891;SDS011;45797;47.466;9.486;2023-07-08T07:50:15;2.53;;;0.82;;
37891;SDS011;45797;47.466;9.486;2023-07-08T08:00:26;2.38;;;1.00;;
37891;SDS011;45797;47.466;9.486;2023-07-08T08:05:27;2.63;;;1.00;;
37891;SDS011;45797;47.466;9.486;2023-07-08T08:10:37;3.10;;;1.08;;
37891;SDS011;45797;47.466;9.486;2023-07-08T08:15:37;2.28;;;0.90;;
37891;SDS011;45797;47.466;9.486;2023-07-08T08:20:38;3.03;;;1.10;;
37891;SDS011;45797;47.466;9.486;2023-07-08T08:25:39;3.72;;;0.98;;
37891;SDS011;45797;47.466;9.486;2023-07-08T08:30:49;2.30;;;1.00;;
37891;SDS011;45797;47.466;9.486;2023-07-08T08:35:50;3.58;;;1.20;;
37891;SDS011;45797;47.466;9.486;2023-07-08T09:01:51;3.63;;;1.20;;
37891;SDS011;45797;47.466;9.486;2023-07-08T09:17:32;2.88;;;1.00;;
37891;SDS011;45797;47.466;9.486;2023-07-08T09:27:59;2.33;;;0.90;;
37891;SDS011;45797;47.466;9.486;2023-07-08T09:33:11;2.67;;;1.10;;
37891;SDS011;45797;47.466;9.486;2023-07-08T09:38:16;2.38;;;1.02;;
37891;SDS011;45797;47.466;9.486;2023-07-08T09:43:25;4.05;;;1.63;;
37891;SDS011;45797;47.466;9.486;2023-07-08T09:54:00;2.47;;;0.95;;
37891;SDS011;45797;47.466;9.486;2023-07-08T09:59:00;1.70;;;0.88;;
37891;SDS011;45797;47.466;9.486;2023-07-08T10:04:03;2.95;;;1.10;;
37891;SDS011;45797;47.466;9.486;2023-07-08T10:09:11;3.40;;;0.90;;
37891;SDS011;45797;47.466;9.486;2023-07-08T10:19:43;2.40;;;1.00;;
37891;SDS011;45797;47.466;9.486;2023-07-08T10:35:28;2.53;;;1.30;;
37891;SDS011;45797;47.466;9.486;2023-07-08T11:07:28;2.70;;;1.20;;
37891;SDS011;45797;47.466;9.486;2023-07-08T11:18:36;3.55;;;1.60;;
37891;SDS011;45797;47.466;9.486;2023-07-08T11:28:57;2.90;;;1.17;;
37891;SDS011;45797;47.466;9.486;2023-07-08T11:39:32;4.32;;;1.90;;
37891;SDS011;45797;47.466;9.486;2023-07-08T11:44:52;2.42;;;1.23;;
37891;SDS011;45797;47.466;9.486;2023-07-08T11:55:21;2.75;;;1.40;;
37891;SDS011;45797;47.466;9.486;2023-07-08T12:00:30;3.40;;;1.42;;
37891;SDS011;45797;47.466;9.486;2023-07-08T12:05:35;2.25;;;1.10;;
37891;SDS011;45797;47.466;9.486;2023-07-08T12:10:54;3.10;;;1.52;;
37891;SDS011;45797;47.466;9.486;2023-07-08T12:15:56;4.43;;;1.35;;
37891;SDS011;45797;47.466;9.486;2023-07-08T12:20:59;3.33;;;1.40;;
37891;SDS011;45797;47.466;9.486;2023-07-08T12:31:18;3.53;;;1.50;;
37891;SDS011;45797;47.466;9.486;2023-07-08T12:36:21;2.75;;;1.25;;
37891;SDS011;45797;47.466;9.486;2023-07-08T12:52:43;4.50;;;1.50;;
37891;SDS011;45797;47.466;9.486;2023-07-08T12:57:50;3.05;;;1.38;;
37891;SDS011;45797;47.466;9.486;2023-07-08T13:02:56;5.82;;;1.42;;
37891;SDS011;45797;47.466;9.486;2023-07-08T13:08:27;2.65;;;1.30;;
37891;SDS011;45797;47.466;9.486;2023-07-08T13:13:34;2.35;;;1.20;;
37891;SDS011;45797;47.466;9.486;2023-07-08T13:18:39;2.75;;;1.20;;
37891;SDS011;45797;47.466;9.486;2023-07-08T13:23:41;2.88;;;1.30;;
37891;SDS011;45797;47.466;9.486;2023-07-08T13:28:45;3.17;;;1.40;;
37891;SDS011;45797;47.466;9.486;2023-07-08T13:39:53;2.58;;;1.30;;
37891;SDS011;45797;47.466;9.486;2023-07-08T13:44:55;3.40;;;1.20;;
37891;SDS011;45797;47.466;9.486;2023-07-08T13:49:57;4.85;;;1.63;;
37891;SDS011;45797;47.466;9.486;2023-07-08T14:00:42;3.38;;;1.52;;
37891;SDS011;45797;47.466;9.486;2023-07-08T14:05:44;2.65;;;1.35;;
37891;SDS011;45797;47.466;9.486;2023-07-08T14:10:46;3.08;;;1.40;;
37891;SDS011;45797;47.466;9.486;2023-07-08T14:15:46;3.67;;;1.63;;
37891;SDS011;45797;47.466;9.486;2023-07-08T14:26:23;3.20;;;1.38;;
37891;SDS011;45797;47.466;9.486;2023-07-08T14:31:23;4.85;;;1.52;;
37891;SDS011;45797;47.466;9.486;2023-07-08T14:36:26;3.10;;;1.67;;
37891;SDS011;45797;47.466;9.486;2023-07-08T14:46:39;3.00;;;1.38;;
37891;SDS011;45797;47.466;9.486;2023-07-08T14:51:40;3.63;;;1.67;;
37891;SDS011;45797;47.466;9.486;2023-07-08T14:56:41;5.90;;;1.42;;
37891;SDS011;45797;47.466;9.486;2023-07-08T15:01:42;2.97;;;1.40;;
37891;SDS011;45797;47.466;9.486;2023-07-08T15:11:55;4.85;;;1.58;;
37891;SDS011;45797;47.466;9.486;2023-07-08T15:17:02;2.92;;;1.48;;
37891;SDS011;45797;47.466;9.486;2023-07-08T15:22:11;2.70;;;1.48;;
37891;SDS011;45797;47.466;9.486;2023-07-08T15:27:12;3.25;;;1.50;;
37891;SDS011;45797;47.466;9.486;2023-07-08T15:32:17;3.10;;;1.40;;
37891;SDS011;45797;47.466;9.486;2023-07-08T15:37:21;6.97;;;1.92;;
37891;SDS011;45797;47.466;9.486;2023-07-08T15:42:21;3.35;;;1.67;;
37891;SDS011;45797;47.466;9.486;2023-07-08T15:47:21;2.75;;;1.45;;
37891;SDS011;45797;47.466;9.486;2023-07-08T15:52:22;3.65;;;1.90;;
37891;SDS011;45797;47.466;9.486;2023-07-08T16:02:29;4.82;;;1.60;;
37891;SDS011;45797;47.466;9.486;2023-07-08T16:07:31;3.28;;;1.60;;
37891;SDS011;45797;47.466;9.486;2023-07-08T16:12:33;3.53;;;1.92;;
37891;SDS011;45797;47.466;9.486;2023-07-08T16:17:35;4.30;;;2.05;;
37891;SDS011;45797;47.466;9.486;2023-07-08T16:22:38;4.30;;;1.75;;
37891;SDS011;45797;47.466;9.486;2023-07-08T16:27:42;5.10;;;1.60;;
37891;SDS011;45797;47.466;9.486;2023-07-08T16:32:48;3.88;;;1.77;;
37891;SDS011;45797;47.466;9.486;2023-07-08T16:37:51;2.78;;;1.48;;
37891;SDS011;45797;47.466;9.486;2023-07-08T16:42:55;3.67;;;1.67;;
37891;SDS011;45797;47.466;9.486;2023-07-08T16:47:57;3.90;;;1.70;;
37891;SDS011;45797;47.466;9.486;2023-07-08T16:52:59;4.68;;;1.67;;
37891;SDS011;45797;47.466;9.486;2023-07-08T17:08:16;3.83;;;1.80;;
37891;SDS011;45797;47.466;9.486;2023-07-08T17:13:22;5.07;;;2.63;;
37891;SDS011;45797;47.466;9.486;2023-07-08T17:18:30;4.20;;;2.05;;
37891;SDS011;45797;47.466;9.486;2023-07-08T17:23:31;3.70;;;1.65;;
37891;SDS011;45797;47.466;9.486;2023-07-08T17:33:54;3.30;;;1.90;;
37891;SDS011;45797;47.466;9.486;2023-07-08T17:38:57;3.33;;;2.03;;
37891;SDS011;45797;47.466;9.486;2023-07-08T17:44:04;4.65;;;1.70;;
37891;SDS011;45797;47.466;9.486;2023-07-08T17:49:08;3.97;;;1.50;;
37891;SDS011;45797;47.466;9.486;2023-07-08T17:59:24;3.58;;;1.83;;
37891;SDS011;45797;47.466;9.486;2023-07-08T18:04:27;4.78;;;2.17;;
37891;SDS011;45797;47.466;9.486;2023-07-08T18:09:28;3.38;;;1.38;;
37891;SDS011;45797;47.466;9.486;2023-07-08T18:14:34;2.22;;;1.10;;
37891;SDS011;45797;47.466;9.486;2023-07-08T18:19:34;3.70;;;1.35;;
37891;SDS011;45797;47.466;9.486;2023-07-08T18:24:35;2.55;;;1.20;;
37891;SDS011;45797;47.466;9.486;2023-07-08T18:29:35;2.75;;;1.10;;
37891;SDS011;45797;47.466;9.486;2023-07-08T18:34:37;3.22;;;1.48;;
37891;SDS011;45797;47.466;9.486;2023-07-08T18:39:39;3.38;;;1.90;;
37891;SDS011;45797;47.466;9.486;2023-07-08T18:49:58;3.25;;;1.70;;
37891;SDS011;45797;47.466;9.486;2023-07-08T18:55:00;4.38;;;1.60;;
37891;SDS011;45797;47.466;9.486;2023-07-08T19:00:09;3.08;;;1.63;;
37891;SDS011;45797;47.466;9.486;2023-07-08T19:05:17;2.88;;;1.60;;
37891;SDS011;45797;47.466;9.486;2023-07-08T19:10:21;3.03;;;1.50;;
37891;SDS011;45797;47.466;9.486;2023-07-08T19:15:31;3.60;;;1.60;;
37891;SDS011;45797;47.466;9.486;2023-07-08T19:30:50;4.40;;;1.80;;
37891;SDS011;45797;47.466;9.486;2023-07-08T19:35:53;2.67;;;1.55;;
37891;SDS011;45797;47.466;9.486;2023-07-08T19:46:16;3.42;;;1.58;;
37891;SDS011;45797;47.466;9.486;2023-07-08T19:51:16;4.10;;;1.88;;
37891;SDS011;45797;47.466;9.486;2023-07-08T19:56:19;4.28;;;1.85;;
37891;SDS011;45797;47.466;9.486;2023-07-08T20:01:30;4.32;;;1.60;;
37891;SDS011;45797;47.466;9.486;2023-07-08T20:06:31;4.78;;;1.90;;
37891;SDS011;45797;47.466;9.486;2023-07-08T20:11:33;4.43;;;1.85;;
37891;SDS011;45797;47.466;9.486;2023-07-08T20:16:34;3.42;;;1.70;;
37891;SDS011;45797;47.466;9.486;2023-07-08T20:21:35;5.13;;;2.03;;
37891;SDS011;45797;47.466;9.486;2023-07-08T20:31:40;4.68;;;1.85;;
37891;SDS011;45797;47.466;9.486;2023-07-08T20:42:13;3.65;;;1.80;;
37891;SDS011;45797;47.466;9.486;2023-07-08T20:47:16;2.75;;;1.55;;
37891;SDS011;45797;47.466;9.486;2023-07-08T20:52:18;5.20;;;2.22;;
37891;SDS011;45797;47.466;9.486;2023-07-08T20:57:19;3.53;;;1.88;;
37891;SDS011;45797;47.466;9.486;2023-07-08T21:02:23;3.25;;;1.67;;
37891;SDS011;45797;47.466;9.486;2023-07-08T21:07:26;4.05;;;1.48;;
37891;SDS011;45797;47.466;9.486;2023-07-08T21:12:27;4.40;;;1.80;;
37891;SDS011;45797;47.466;9.486;2023-07-08T21:17:28;3.70;;;1.73;;
37891;SDS011;45797;47.466;9.486;2023-07-08T21:22:32;4.82;;;1.98;;
37891;SDS011;45797;47.466;9.486;2023-07-08T21:27:43;4.13;;;1.80;;
37891;SDS011;45797;47.466;9.486;2023-07-08T21:32:56;3.13;;;1.63;;
37891;SDS011;45797;47.466;9.486;2023-07-08T21:38:01;3.40;;;1.80;;
37891;SDS011;45797;47.466;9.486;2023-07-08T21:43:11;3.58;;;2.03;;
37891;SDS011;45797;47.466;9.486;2023-07-08T21:48:15;3.45;;;1.80;;
37891;SDS011;45797;47.466;9.486;2023-07-08T21:53:24;5.07;;;1.85;;
37891;SDS011;45797;47.466;9.486;2023-07-08T21:58:30;4.97;;;1.90;;
37891;SDS011;45797;47.466;9.486;2023-07-08T22:08:37;3.55;;;1.75;;
37891;SDS011;45797;47.466;9.486;2023-07-08T22:19:06;3.15;;;1.65;;
37891;SDS011;45797;47.466;9.486;2023-07-08T22:24:07;7.72;;;1.73;;
37891;SDS011;45797;47.466;9.486;2023-07-08T22:29:14;6.50;;;1.92;;
37891;SDS011;45797;47.466;9.486;2023-07-08T22:34:22;4.95;;;2.22;;
37891;SDS011;45797;47.466;9.486;2023-07-08T22:39:22;3.58;;;1.80;;
37891;SDS011;45797;47.466;9.486;2023-07-08T22:44:27;5.05;;;2.17;;
37891;SDS011;45797;47.466;9.486;2023-07-08T22:49:35;3.97;;;2.00;;
37891;SDS011;45797;47.466;9.486;2023-07-08T22:54:41;5.03;;;2.20;;
37891;SDS011;45797;47.466;9.486;2023-07-08T22:59:52;4.47;;;2.15;;
37891;SDS011;45797;47.466;9.486;2023-07-08T23:05:08;3.67;;;1.95;;
37891;SDS011;45797;47.466;9.486;2023-07-08T23:10:11;3.63;;;1.88;;
37891;SDS011;45797;47.466;9.486;2023-07-08T23:15:12;5.63;;;2.03;;
37891;SDS011;45797;47.466;9.486;2023-07-08T23:25:18;5.10;;;2.22;;
37891;SDS011;45797;47.466;9.486;2023-07-08T23:30:27;3.88;;;2.20;;
37891;SDS011;45797;47.466;9.486;2023-07-08T23:35:28;3.97;;;2.08;;
37891;SDS011;45797;47.466;9.486;2023-07-08T23:40:35;5.30;;;2.20;;
37891;SDS011;45797;47.466;9.486;2023-07-08T23:45:40;5.78;;;2.30;;
37891;SDS011;45797;47.466;9.486;2023-07-08T23:50:41;4.50;;;1.90;;
37891;SDS011;45797;47.466;9.486;2023-07-08T23:55:52;5.22;;;2.17;;
